Erenhot Saiwusu International Airport


Codes: ZBER/ERL
Name: Erenhot Saiwusu International Airport
City: Erenhot,
Country: China
Elevation: 3301 ft.
Wikipedia:

Photos at Erenhot Saiwusu International Airport


   Photos courtesy of SpottingLog. You can add your own sightings and photos by signing up for a free trial today.



No photos found.

Weather at Erenhot Saiwusu International Airport


Time (UTC)DescriptionTempratureWindCloud coverageVisibilityPressureHumidity
18-Apr-2024 00:00Overcast Clouds11°C9 mph, SE100%10000m1012hPa38%
18-Apr-2024 03:00Overcast Clouds14°C11 mph, NE100%10000m1011hPa31%
18-Apr-2024 06:00Overcast Clouds16°C22 mph, NE100%10000m1009hPa25%
18-Apr-2024 09:00Overcast Clouds13°C22 mph, NE100%10000m1011hPa24%
18-Apr-2024 12:00Overcast Clouds11°C20 mph, E100%10000m1013hPa30%
18-Apr-2024 15:00Overcast Clouds8°C18 mph, NE100%10000m1016hPa52%
18-Apr-2024 18:00Overcast Clouds7°C16 mph, E100%10000m1016hPa50%
18-Apr-2024 21:00Light Rain5°C16 mph, NE100%10000m1016hPa61%
19-Apr-2024 00:00Overcast Clouds5°C16 mph, NE100%10000m1016hPa49%
19-Apr-2024 03:00Overcast Clouds9°C16 mph, NE100%10000m1015hPa24%
19-Apr-2024 06:00Overcast Clouds10°C16 mph, NE100%10000m1012hPa18%
19-Apr-2024 09:00Overcast Clouds11°C9 mph, NE100%10000m1011hPa17%
19-Apr-2024 12:00Overcast Clouds10°C2 mph, E100%10000m1012hPa20%
19-Apr-2024 15:00Overcast Clouds8°C4 mph, W100%10000m1012hPa21%
19-Apr-2024 18:00Broken Clouds6°C9 mph, W74%10000m1011hPa25%
19-Apr-2024 21:00Clear Sky5°C9 mph, SW0%10000m1011hPa27%
20-Apr-2024 00:00Clear Sky7°C16 mph, SW6%10000m1012hPa25%
20-Apr-2024 03:00Few Clouds12°C20 mph, SW18%10000m1008hPa16%
20-Apr-2024 06:00Few Clouds18°C20 mph, SW13%10000m1005hPa18%
20-Apr-2024 09:00Scattered Clouds20°C18 mph, W27%10000m1002hPa18%
20-Apr-2024 12:00Broken Clouds17°C11 mph, SW55%10000m1003hPa27%
20-Apr-2024 15:00Clear Sky14°C25 mph, SW10%10000m1004hPa39%
20-Apr-2024 18:00Clear Sky13°C27 mph, SW6%10000m1003hPa35%
20-Apr-2024 21:00Scattered Clouds12°C27 mph, SW42%10000m1002hPa37%
21-Apr-2024 00:00Scattered Clouds14°C27 mph, SW50%10000m1002hPa32%
21-Apr-2024 03:00Broken Clouds16°C27 mph, W66%10000m1003hPa29%
21-Apr-2024 06:00Scattered Clouds16°C27 mph, W43%10000m1004hPa19%
21-Apr-2024 09:00Broken Clouds15°C27 mph, W60%10000m1004hPa19%
21-Apr-2024 12:00Broken Clouds12°C22 mph, NW80%10000m1007hPa20%
21-Apr-2024 15:00Scattered Clouds9°C13 mph, NW47%10000m1010hPa25%
21-Apr-2024 18:00Broken Clouds7°C7 mph, NW56%10000m1010hPa29%
21-Apr-2024 21:00Overcast Clouds6°C2 mph, S98%10000m1010hPa31%
22-Apr-2024 00:00Overcast Clouds8°C4 mph, E97%10000m1009hPa26%
22-Apr-2024 03:00Overcast Clouds12°C11 mph, E100%10000m1005hPa21%
22-Apr-2024 06:00Overcast Clouds16°C9 mph, NE97%10000m998hPa19%
22-Apr-2024 09:00Light Rain9°C20 mph, NE100%10000m1001hPa41%
22-Apr-2024 12:00Snow2°C27 mph, N100%0m1010hPa93%
22-Apr-2024 15:00Light Rain5°C16 mph, W100%10000m1010hPa49%
22-Apr-2024 18:00Overcast Clouds4°C18 mph, NW100%10000m1012hPa49%
22-Apr-2024 21:00Overcast Clouds2°C20 mph, NW100%10000m1014hPa45%